sensor_id;sensor_type;location;lat;lon;timestamp;pressure;altitude;pressure_sealevel;temperature;humidity
59367;BME280;45163;47.690;11.770;2023-02-28T00:00:34;93554.00;;;-5.71;100.00
59367;BME280;45163;47.690;11.770;2023-02-28T00:03:01;93553.09;;;-5.75;100.00
59367;BME280;45163;47.690;11.770;2023-02-28T00:05:28;93559.66;;;-5.72;100.00
59367;BME280;45163;47.690;11.770;2023-02-28T00:07:55;93553.13;;;-5.63;100.00
59367;BME280;45163;47.690;11.770;2023-02-28T00:10:24;93551.91;;;-5.65;100.00
59367;BME280;45163;47.690;11.770;2023-02-28T00:12:51;93554.00;;;-5.71;100.00
59367;BME280;45163;47.690;11.770;2023-02-28T00:15:18;93549.78;;;-5.72;100.00
59367;BME280;45163;47.690;11.770;2023-02-28T00:17:44;93555.59;;;-5.79;100.00
59367;BME280;45163;47.690;11.770;2023-02-28T00:20:11;93552.03;;;-5.83;100.00
59367;BME280;45163;47.690;11.770;2023-02-28T00:22:39;93551.72;;;-5.81;100.00
59367;BME280;45163;47.690;11.770;2023-02-28T00:25:07;93551.06;;;-5.78;100.00
59367;BME280;45163;47.690;11.770;2023-02-28T00:27:36;93550.44;;;-5.75;100.00
59367;BME280;45163;47.690;11.770;2023-02-28T00:30:04;93553.66;;;-5.90;100.00
59367;BME280;45163;47.690;11.770;2023-02-28T00:32:32;93545.53;;;-6.06;100.00
59367;BME280;45163;47.690;11.770;2023-02-28T00:35:00;93545.34;;;-6.01;100.00
59367;BME280;45163;47.690;11.770;2023-02-28T00:37:26;93547.53;;;-6.03;100.00
59367;BME280;45163;47.690;11.770;2023-02-28T00:39:52;93541.78;;;-6.05;100.00
59367;BME280;45163;47.690;11.770;2023-02-28T00:42:18;93539.34;;;-6.10;100.00
59367;BME280;45163;47.690;11.770;2023-02-28T00:44:44;93541.25;;;-6.19;100.00
59367;BME280;45163;47.690;11.770;2023-02-28T00:47:10;93534.53;;;-6.17;100.00
59367;BME280;45163;47.690;11.770;2023-02-28T00:49:36;93542.22;;;-6.24;100.00
59367;BME280;45163;47.690;11.770;2023-02-28T00:52:02;93530.88;;;-6.33;100.00
59367;BME280;45163;47.690;11.770;2023-02-28T00:54:29;93542.81;;;-6.39;100.00
59367;BME280;45163;47.690;11.770;2023-02-28T00:56:55;93535.94;;;-6.40;100.00
59367;BME280;45163;47.690;11.770;2023-02-28T00:59:21;93533.94;;;-6.43;100.00
59367;BME280;45163;47.690;11.770;2023-02-28T01:01:47;93541.38;;;-6.37;100.00
59367;BME280;45163;47.690;11.770;2023-02-28T01:04:14;93540.59;;;-6.37;100.00
59367;BME280;45163;47.690;11.770;2023-02-28T01:06:40;93536.41;;;-6.38;100.00
59367;BME280;45163;47.690;11.770;2023-02-28T01:09:07;93537.94;;;-6.37;100.00
59367;BME280;45163;47.690;11.770;2023-02-28T01:11:34;93528.66;;;-6.52;100.00
59367;BME280;45163;47.690;11.770;2023-02-28T01:14:00;93534.94;;;-6.57;100.00
59367;BME280;45163;47.690;11.770;2023-02-28T01:16:27;93523.88;;;-6.59;100.00
59367;BME280;45163;47.690;11.770;2023-02-28T01:18:53;93531.41;;;-6.69;100.00
59367;BME280;45163;47.690;11.770;2023-02-28T01:21:21;93533.75;;;-6.68;100.00
59367;BME280;45163;47.690;11.770;2023-02-28T01:23:48;93535.44;;;-6.63;100.00
59367;BME280;45163;47.690;11.770;2023-02-28T01:26:20;93534.56;;;-6.76;100.00
59367;BME280;45163;47.690;11.770;2023-02-28T01:28:47;93531.19;;;-6.85;100.00
59367;BME280;45163;47.690;11.770;2023-02-28T01:31:13;93521.22;;;-6.88;100.00
59367;BME280;45163;47.690;11.770;2023-02-28T01:33:40;93517.94;;;-6.85;100.00
59367;BME280;45163;47.690;11.770;2023-02-28T01:38:33;93522.41;;;-7.15;100.00
59367;BME280;45163;47.690;11.770;2023-02-28T01:41:00;93518.38;;;-7.21;100.00
59367;BME280;45163;47.690;11.770;2023-02-28T01:43:28;93514.19;;;-7.22;100.00
59367;BME280;45163;47.690;11.770;2023-02-28T01:45:57;93511.16;;;-7.12;100.00
59367;BME280;45163;47.690;11.770;2023-02-28T01:48:27;93514.16;;;-7.14;100.00
59367;BME280;45163;47.690;11.770;2023-02-28T01:50:59;93506.63;;;-7.12;100.00
59367;BME280;45163;47.690;11.770;2023-02-28T01:53:33;93511.84;;;-7.24;100.00
59367;BME280;45163;47.690;11.770;2023-02-28T01:56:05;93507.06;;;-7.39;100.00
59367;BME280;45163;47.690;11.770;2023-02-28T01:58:32;93511.28;;;-7.47;100.00
59367;BME280;45163;47.690;11.770;2023-02-28T02:00:59;93515.50;;;-7.46;100.00
59367;BME280;45163;47.690;11.770;2023-02-28T02:03:25;93515.03;;;-7.39;100.00
59367;BME280;45163;47.690;11.770;2023-02-28T02:05:52;93518.72;;;-7.23;100.00
59367;BME280;45163;47.690;11.770;2023-02-28T02:08:28;93510.75;;;-7.23;100.00
59367;BME280;45163;47.690;11.770;2023-02-28T02:10:57;93509.69;;;-7.31;100.00
59367;BME280;45163;47.690;11.770;2023-02-28T02:33:04;93502.16;;;-7.20;100.00
59367;BME280;45163;47.690;11.770;2023-02-28T02:40:46;93494.72;;;-7.35;100.00
59367;BME280;45163;47.690;11.770;2023-02-28T02:43:20;93497.34;;;-7.27;100.00
59367;BME280;45163;47.690;11.770;2023-02-28T02:46:00;93498.31;;;-7.31;100.00
59367;BME280;45163;47.690;11.770;2023-02-28T02:48:30;93497.16;;;-7.21;100.00
59367;BME280;45163;47.690;11.770;2023-02-28T02:51:01;93489.06;;;-7.25;100.00
59367;BME280;45163;47.690;11.770;2023-02-28T02:53:40;93494.94;;;-7.11;100.00
59367;BME280;45163;47.690;11.770;2023-02-28T02:56:08;93491.50;;;-7.49;100.00
59367;BME280;45163;47.690;11.770;2023-02-28T02:58:40;93493.03;;;-7.48;100.00
59367;BME280;45163;47.690;11.770;2023-02-28T03:01:12;93492.38;;;-7.37;100.00
59367;BME280;45163;47.690;11.770;2023-02-28T03:03:40;93496.25;;;-7.25;100.00
59367;BME280;45163;47.690;11.770;2023-02-28T03:06:06;93494.03;;;-7.23;100.00
59367;BME280;45163;47.690;11.770;2023-02-28T03:08:37;93494.25;;;-7.37;100.00
59367;BME280;45163;47.690;11.770;2023-02-28T03:11:12;93491.00;;;-7.43;100.00
59367;BME280;45163;47.690;11.770;2023-02-28T03:35:59;93491.28;;;-7.91;100.00
59367;BME280;45163;47.690;11.770;2023-02-28T03:41:05;93496.59;;;-8.09;100.00
59367;BME280;45163;47.690;11.770;2023-02-28T03:43:35;93497.53;;;-8.05;100.00
59367;BME280;45163;47.690;11.770;2023-02-28T03:46:07;93499.72;;;-7.98;100.00
59367;BME280;45163;47.690;11.770;2023-02-28T03:48:44;93500.34;;;-8.01;100.00
59367;BME280;45163;47.690;11.770;2023-02-28T03:51:16;93499.72;;;-8.07;100.00
59367;BME280;45163;47.690;11.770;2023-02-28T03:54:05;93500.00;;;-7.99;100.00
59367;BME280;45163;47.690;11.770;2023-02-28T03:56:41;93498.13;;;-8.08;100.00
59367;BME280;45163;47.690;11.770;2023-02-28T03:59:20;93498.63;;;-8.40;100.00
59367;BME280;45163;47.690;11.770;2023-02-28T04:01:48;93505.78;;;-8.58;100.00
59367;BME280;45163;47.690;11.770;2023-02-28T04:04:15;93507.22;;;-8.43;100.00
59367;BME280;45163;47.690;11.770;2023-02-28T04:06:43;93496.13;;;-8.28;100.00
59367;BME280;45163;47.690;11.770;2023-02-28T04:09:11;93502.88;;;-8.39;100.00
59367;BME280;45163;47.690;11.770;2023-02-28T04:11:40;93500.69;;;-8.37;100.00
59367;BME280;45163;47.690;11.770;2023-02-28T04:14:09;93505.63;;;-8.53;100.00
59367;BME280;45163;47.690;11.770;2023-02-28T04:16:38;93506.44;;;-8.44;100.00
59367;BME280;45163;47.690;11.770;2023-02-28T04:19:06;93511.56;;;-8.30;100.00
59367;BME280;45163;47.690;11.770;2023-02-28T04:21:37;93507.03;;;-8.21;100.00
59367;BME280;45163;47.690;11.770;2023-02-28T04:24:12;93510.16;;;-8.45;100.00
59367;BME280;45163;47.690;11.770;2023-02-28T04:26:45;93514.69;;;-8.37;100.00
59367;BME280;45163;47.690;11.770;2023-02-28T04:29:12;93517.66;;;-8.47;100.00
59367;BME280;45163;47.690;11.770;2023-02-28T04:31:39;93517.47;;;-8.50;100.00
59367;BME280;45163;47.690;11.770;2023-02-28T04:34:05;93526.97;;;-8.58;100.00
59367;BME280;45163;47.690;11.770;2023-02-28T04:36:32;93526.97;;;-8.58;100.00
59367;BME280;45163;47.690;11.770;2023-02-28T04:38:58;93525.69;;;-8.69;100.00
59367;BME280;45163;47.690;11.770;2023-02-28T04:41:24;93523.03;;;-8.78;100.00
59367;BME280;45163;47.690;11.770;2023-02-28T04:43:51;93527.38;;;-8.82;100.00
59367;BME280;45163;47.690;11.770;2023-02-28T04:46:17;93519.44;;;-8.82;100.00
59367;BME280;45163;47.690;11.770;2023-02-28T04:48:44;93534.56;;;-8.74;100.00
59367;BME280;45163;47.690;11.770;2023-02-28T04:51:13;93535.22;;;-8.68;100.00
59367;BME280;45163;47.690;11.770;2023-02-28T04:53:40;93539.84;;;-8.74;100.00
59367;BME280;45163;47.690;11.770;2023-02-28T04:56:08;93531.47;;;-9.16;100.00
59367;BME280;45163;47.690;11.770;2023-02-28T04:58:34;93527.28;;;-9.17;100.00
59367;BME280;45163;47.690;11.770;2023-02-28T05:01:04;93536.75;;;-9.56;100.00
59367;BME280;45163;47.690;11.770;2023-02-28T05:03:42;93540.56;;;-9.39;100.00
59367;BME280;45163;47.690;11.770;2023-02-28T05:06:08;93545.72;;;-9.34;100.00
59367;BME280;45163;47.690;11.770;2023-02-28T05:08:35;93533.88;;;-9.37;100.00
59367;BME280;45163;47.690;11.770;2023-02-28T05:11:01;93544.19;;;-9.26;100.00
59367;BME280;45163;47.690;11.770;2023-02-28T05:13:28;93535.88;;;-9.42;100.00
59367;BME280;45163;47.690;11.770;2023-02-28T05:15:54;93539.50;;;-9.30;100.00
59367;BME280;45163;47.690;11.770;2023-02-28T05:18:21;93545.25;;;-9.36;100.00
59367;BME280;45163;47.690;11.770;2023-02-28T05:20:47;93541.81;;;-9.37;100.00
59367;BME280;45163;47.690;11.770;2023-02-28T05:23:14;93546.59;;;-9.47;100.00
59367;BME280;45163;47.690;11.770;2023-02-28T05:25:41;93541.34;;;-9.39;100.00
59367;BME280;45163;47.690;11.770;2023-02-28T05:28:07;93538.13;;;-9.58;100.00
59367;BME280;45163;47.690;11.770;2023-02-28T05:30:33;93539.81;;;-9.31;100.00
59367;BME280;45163;47.690;11.770;2023-02-28T05:32:59;93536.84;;;-9.69;100.00
59367;BME280;45163;47.690;11.770;2023-02-28T05:35:26;93540.47;;;-9.57;100.00
59367;BME280;45163;47.690;11.770;2023-02-28T05:37:52;93553.84;;;-9.53;100.00
59367;BME280;45163;47.690;11.770;2023-02-28T05:40:18;93551.38;;;-9.49;100.00
59367;BME280;45163;47.690;11.770;2023-02-28T05:42:46;93559.66;;;-9.42;100.00
59367;BME280;45163;47.690;11.770;2023-02-28T05:45:12;93561.59;;;-9.25;100.00
59367;BME280;45163;47.690;11.770;2023-02-28T05:47:41;93567.69;;;-9.56;100.00
59367;BME280;45163;47.690;11.770;2023-02-28T05:50:08;93569.22;;;-9.55;100.00
59367;BME280;45163;47.690;11.770;2023-02-28T05:52:35;93562.34;;;-9.65;100.00
59367;BME280;45163;47.690;11.770;2023-02-28T05:55:01;93562.53;;;-9.84;100.00
59367;BME280;45163;47.690;11.770;2023-02-28T05:57:27;93565.53;;;-9.76;100.00
59367;BME280;45163;47.690;11.770;2023-02-28T05:59:53;93578.66;;;-9.63;100.00
59367;BME280;45163;47.690;11.770;2023-02-28T06:02:19;93581.91;;;-9.66;100.00
59367;BME280;45163;47.690;11.770;2023-02-28T06:04:45;93578.78;;;-9.68;100.00
59367;BME280;45163;47.690;11.770;2023-02-28T06:07:11;93579.19;;;-9.52;100.00
59367;BME280;45163;47.690;11.770;2023-02-28T06:09:38;93582.91;;;-9.53;100.00
59367;BME280;45163;47.690;11.770;2023-02-28T06:12:05;93580.06;;;-9.34;100.00
59367;BME280;45163;47.690;11.770;2023-02-28T06:14:33;93589.56;;;-9.02;100.00
59367;BME280;45163;47.690;11.770;2023-02-28T06:17:00;93586.25;;;-9.08;100.00
59367;BME280;45163;47.690;11.770;2023-02-28T06:19:26;93584.34;;;-9.16;100.00
59367;BME280;45163;47.690;11.770;2023-02-28T06:21:53;93587.25;;;-9.26;100.00
59367;BME280;45163;47.690;11.770;2023-02-28T06:24:21;93590.16;;;-9.05;100.00
59367;BME280;45163;47.690;11.770;2023-02-28T06:26:47;93592.66;;;-9.00;100.00
59367;BME280;45163;47.690;11.770;2023-02-28T06:29:14;93587.78;;;-9.15;100.00
59367;BME280;45163;47.690;11.770;2023-02-28T06:31:43;93594.78;;;-9.42;100.00
59367;BME280;45163;47.690;11.770;2023-02-28T06:34:13;93592.44;;;-9.12;100.00
59367;BME280;45163;47.690;11.770;2023-02-28T06:36:41;93602.00;;;-9.34;100.00
59367;BME280;45163;47.690;11.770;2023-02-28T06:39:08;93597.66;;;-8.98;100.00
59367;BME280;45163;47.690;11.770;2023-02-28T06:41:35;93604.19;;;-8.96;100.00
59367;BME280;45163;47.690;11.770;2023-02-28T06:44:14;93610.50;;;-8.74;100.00
59367;BME280;45163;47.690;11.770;2023-02-28T06:46:43;93614.09;;;-8.62;100.00
59367;BME280;45163;47.690;11.770;2023-02-28T06:49:10;93604.97;;;-8.56;100.00
59367;BME280;45163;47.690;11.770;2023-02-28T06:51:37;93610.41;;;-8.61;100.00
59367;BME280;45163;47.690;11.770;2023-02-28T06:54:05;93613.47;;;-8.67;100.00
59367;BME280;45163;47.690;11.770;2023-02-28T06:56:32;93610.91;;;-8.41;100.00
59367;BME280;45163;47.690;11.770;2023-02-28T06:58:58;93614.97;;;-8.18;100.00
59367;BME280;45163;47.690;11.770;2023-02-28T07:01:24;93608.59;;;-7.47;100.00
59367;BME280;45163;47.690;11.770;2023-02-28T07:03:50;93612.47;;;-6.72;100.00
59367;BME280;45163;47.690;11.770;2023-02-28T07:06:19;93619.75;;;-6.01;100.00
59367;BME280;45163;47.690;11.770;2023-02-28T07:08:45;93611.69;;;-5.71;100.00
59367;BME280;45163;47.690;11.770;2023-02-28T07:11:11;93612.28;;;-5.66;100.00
59367;BME280;45163;47.690;11.770;2023-02-28T07:13:37;93611.75;;;-5.80;100.00
59367;BME280;45163;47.690;11.770;2023-02-28T07:16:06;93617.13;;;-6.69;100.00
59367;BME280;45163;47.690;11.770;2023-02-28T07:18:32;93607.31;;;-6.68;100.00
59367;BME280;45163;47.690;11.770;2023-02-28T07:21:01;93614.63;;;-6.74;100.00
59367;BME280;45163;47.690;11.770;2023-02-28T07:23:28;93608.09;;;-6.38;100.00
59367;BME280;45163;47.690;11.770;2023-02-28T07:25:54;93614.84;;;-6.20;100.00
59367;BME280;45163;47.690;11.770;2023-02-28T07:28:20;93619.25;;;-6.24;100.00
59367;BME280;45163;47.690;11.770;2023-02-28T07:30:46;93621.00;;;-6.28;100.00
59367;BME280;45163;47.690;11.770;2023-02-28T07:33:12;93619.97;;;-6.44;100.00
59367;BME280;45163;47.690;11.770;2023-02-28T07:35:38;93625.16;;;-6.48;100.00
59367;BME280;45163;47.690;11.770;2023-02-28T07:38:04;93622.59;;;-6.36;100.00
59367;BME280;45163;47.690;11.770;2023-02-28T07:40:30;93628.66;;;-6.56;100.00
59367;BME280;45163;47.690;11.770;2023-02-28T07:42:59;93626.94;;;-6.31;100.00
59367;BME280;45163;47.690;11.770;2023-02-28T07:45:25;93624.78;;;-5.45;100.00
59367;BME280;45163;47.690;11.770;2023-02-28T07:47:52;93638.00;;;-4.70;100.00
59367;BME280;45163;47.690;11.770;2023-02-28T07:50:18;93636.72;;;-4.15;100.00
59367;BME280;45163;47.690;11.770;2023-02-28T07:52:44;93629.03;;;-3.92;100.00
59367;BME280;45163;47.690;11.770;2023-02-28T07:55:10;93627.53;;;-3.65;100.00
59367;BME280;45163;47.690;11.770;2023-02-28T07:57:37;93618.56;;;-3.33;100.00
59367;BME280;45163;47.690;11.770;2023-02-28T08:00:05;93617.34;;;-2.00;100.00
59367;BME280;45163;47.690;11.770;2023-02-28T08:02:32;93608.09;;;-0.93;100.00
59367;BME280;45163;47.690;11.770;2023-02-28T08:04:59;93603.31;;;-0.61;100.00
59367;BME280;45163;47.690;11.770;2023-02-28T08:07:25;93606.84;;;-0.57;100.00
59367;BME280;45163;47.690;11.770;2023-02-28T08:09:51;93602.81;;;-1.09;100.00
59367;BME280;45163;47.690;11.770;2023-02-28T08:12:17;93604.47;;;-0.16;100.00
59367;BME280;45163;47.690;11.770;2023-02-28T08:14:43;93608.94;;;0.26;100.00
59367;BME280;45163;47.690;11.770;2023-02-28T08:17:10;93616.44;;;-0.33;100.00
59367;BME280;45163;47.690;11.770;2023-02-28T08:19:37;93606.97;;;-0.27;100.00
59367;BME280;45163;47.690;11.770;2023-02-28T08:22:03;93603.63;;;-0.43;100.00
59367;BME280;45163;47.690;11.770;2023-02-28T08:24:31;93603.88;;;-0.29;100.00
59367;BME280;45163;47.690;11.770;2023-02-28T08:26:59;93616.13;;;0.48;100.00
59367;BME280;45163;47.690;11.770;2023-02-28T08:29:25;93599.59;;;1.40;100.00
59367;BME280;45163;47.690;11.770;2023-02-28T08:31:51;93608.19;;;0.85;100.00
59367;BME280;45163;47.690;11.770;2023-02-28T08:34:17;93609.81;;;2.12;100.00
59367;BME280;45163;47.690;11.770;2023-02-28T08:36:43;93610.50;;;1.98;100.00
59367;BME280;45163;47.690;11.770;2023-02-28T08:39:10;93599.44;;;2.11;100.00
59367;BME280;45163;47.690;11.770;2023-02-28T08:41:36;93606.28;;;2.01;100.00
59367;BME280;45163;47.690;11.770;2023-02-28T08:44:02;93605.41;;;1.12;100.00
59367;BME280;45163;47.690;11.770;2023-02-28T08:46:32;93608.00;;;2.23;100.00
59367;BME280;45163;47.690;11.770;2023-02-28T08:48:58;93608.38;;;2.22;100.00
59367;BME280;45163;47.690;11.770;2023-02-28T08:51:26;93613.47;;;2.34;100.00
59367;BME280;45163;47.690;11.770;2023-02-28T08:54:00;93604.63;;;3.07;100.00
59367;BME280;45163;47.690;11.770;2023-02-28T08:56:27;93603.88;;;3.17;100.00
59367;BME280;45163;47.690;11.770;2023-02-28T08:58:55;93616.97;;;3.11;100.00
59367;BME280;45163;47.690;11.770;2023-02-28T09:01:26;93621.91;;;2.33;100.00
59367;BME280;45163;47.690;11.770;2023-02-28T09:03:54;93620.38;;;3.05;100.00
59367;BME280;45163;47.690;11.770;2023-02-28T09:06:22;93622.19;;;3.91;100.00
59367;BME280;45163;47.690;11.770;2023-02-28T09:08:49;93624.41;;;4.93;100.00
59367;BME280;45163;47.690;11.770;2023-02-28T09:11:16;93626.59;;;5.41;100.00
59367;BME280;45163;47.690;11.770;2023-02-28T09:13:42;93625.63;;;4.78;100.00
59367;BME280;45163;47.690;11.770;2023-02-28T09:16:11;93628.00;;;4.18;100.00
59367;BME280;45163;47.690;11.770;2023-02-28T09:18:39;93629.81;;;5.04;100.00
59367;BME280;45163;47.690;11.770;2023-02-28T09:21:12;93628.38;;;4.31;100.00
59367;BME280;45163;47.690;11.770;2023-02-28T09:23:44;93636.47;;;4.24;100.00
59367;BME280;45163;47.690;11.770;2023-02-28T09:26:22;93630.25;;;4.73;100.00
59367;BME280;45163;47.690;11.770;2023-02-28T09:28:49;93636.47;;;4.38;100.00
59367;BME280;45163;47.690;11.770;2023-02-28T09:31:18;93638.16;;;2.43;100.00
59367;BME280;45163;47.690;11.770;2023-02-28T09:33:48;93635.66;;;3.84;100.00
59367;BME280;45163;47.690;11.770;2023-02-28T09:36:14;93634.53;;;4.17;100.00
59367;BME280;45163;47.690;11.770;2023-02-28T09:38:40;93638.00;;;4.21;100.00
59367;BME280;45163;47.690;11.770;2023-02-28T09:41:13;93631.16;;;6.24;100.00
59367;BME280;45163;47.690;11.770;2023-02-28T09:43:43;93643.44;;;4.29;100.00
59367;BME280;45163;47.690;11.770;2023-02-28T09:46:31;93645.34;;;4.14;100.00
59367;BME280;45163;47.690;11.770;2023-02-28T09:49:02;93641.69;;;3.28;100.00
59367;BME280;45163;47.690;11.770;2023-02-28T09:54:19;93652.63;;;1.80;100.00
59367;BME280;45163;47.690;11.770;2023-02-28T10:05:23;93661.69;;;2.02;100.00
59367;BME280;45163;47.690;11.770;2023-02-28T10:08:02;93670.78;;;1.90;100.00
59367;BME280;45163;47.690;11.770;2023-02-28T10:10:36;93675.25;;;1.08;100.00
59367;BME280;45163;47.690;11.770;2023-02-28T10:18:46;93683.53;;;0.66;100.00
59367;BME280;45163;47.690;11.770;2023-02-28T10:21:17;93682.09;;;0.72;100.00
59367;BME280;45163;47.690;11.770;2023-02-28T10:23:46;93680.28;;;0.80;100.00
59367;BME280;45163;47.690;11.770;2023-02-28T10:26:16;93693.38;;;-0.14;100.00
59367;BME280;45163;47.690;11.770;2023-02-28T10:28:42;93682.25;;;0.07;100.00
59367;BME280;45163;47.690;11.770;2023-02-28T10:31:17;93694.22;;;0.36;100.00
59367;BME280;45163;47.690;11.770;2023-02-28T10:33:44;93699.97;;;0.61;100.00
59367;BME280;45163;47.690;11.770;2023-02-28T10:36:16;93698.94;;;0.42;100.00
59367;BME280;45163;47.690;11.770;2023-02-28T10:38:45;93698.63;;;0.74;100.00
59367;BME280;45163;47.690;11.770;2023-02-28T10:41:14;93697.81;;;-0.03;100.00
59367;BME280;45163;47.690;11.770;2023-02-28T10:43:42;93696.41;;;0.80;100.00
59367;BME280;45163;47.690;11.770;2023-02-28T10:48:47;93704.09;;;1.41;100.00
59367;BME280;45163;47.690;11.770;2023-02-28T10:51:18;93712.88;;;1.68;100.00
59367;BME280;45163;47.690;11.770;2023-02-28T10:53:48;93704.63;;;1.54;100.00
59367;BME280;45163;47.690;11.770;2023-02-28T10:56:23;93705.22;;;1.07;100.00
59367;BME280;45163;47.690;11.770;2023-02-28T11:01:40;93700.75;;;0.91;100.00
59367;BME280;45163;47.690;11.770;2023-02-28T11:07:19;93708.63;;;0.77;100.00
59367;BME280;45163;47.690;11.770;2023-02-28T11:09:48;93707.56;;;0.82;100.00
59367;BME280;45163;47.690;11.770;2023-02-28T11:12:38;93698.50;;;0.93;100.00
59367;BME280;45163;47.690;11.770;2023-02-28T11:15:28;93702.34;;;1.22;100.00
59367;BME280;45163;47.690;11.770;2023-02-28T11:18:02;93698.34;;;1.09;100.00
59367;BME280;45163;47.690;11.770;2023-02-28T11:20:32;93700.22;;;1.39;100.00
59367;BME280;45163;47.690;11.770;2023-02-28T11:23:00;93704.59;;;1.51;100.00
59367;BME280;45163;47.690;11.770;2023-02-28T11:25:36;93703.84;;;1.54;100.00
59367;BME280;45163;47.690;11.770;2023-02-28T11:28:05;93709.03;;;1.36;100.00
59367;BME280;45163;47.690;11.770;2023-02-28T11:30:40;93702.16;;;1.38;100.00
59367;BME280;45163;47.690;11.770;2023-02-28T11:33:27;93696.25;;;1.59;100.00
59367;BME280;45163;47.690;11.770;2023-02-28T11:35:58;93698.00;;;1.14;100.00
59367;BME280;45163;47.690;11.770;2023-02-28T11:38:26;93699.47;;;1.38;100.00
59367;BME280;45163;47.690;11.770;2023-02-28T11:43:34;93702.41;;;1.60;100.00
59367;BME280;45163;47.690;11.770;2023-02-28T11:48:58;93678.66;;;1.69;100.00
59367;BME280;45163;47.690;11.770;2023-02-28T11:51:45;93681.47;;;1.83;100.00
59367;BME280;45163;47.690;11.770;2023-02-28T11:54:21;93687.75;;;1.23;100.00
59367;BME280;45163;47.690;11.770;2023-02-28T11:56:55;93691.06;;;1.43;100.00
59367;BME280;45163;47.690;11.770;2023-02-28T11:59:38;93695.69;;;1.43;100.00
59367;BME280;45163;47.690;11.770;2023-02-28T12:02:25;93691.97;;;1.58;100.00
59367;BME280;45163;47.690;11.770;2023-02-28T12:07:59;93685.66;;;1.77;100.00
59367;BME280;45163;47.690;11.770;2023-02-28T12:11:00;93700.44;;;1.57;100.00
59367;BME280;45163;47.690;11.770;2023-02-28T12:13:59;93688.34;;;1.77;100.00
59367;BME280;45163;47.690;11.770;2023-02-28T12:32:20;93687.13;;;2.12;100.00
59367;BME280;45163;47.690;11.770;2023-02-28T12:35:14;93679.19;;;2.26;100.00
59367;BME280;45163;47.690;11.770;2023-02-28T12:37:51;93680.88;;;2.00;100.00
59367;BME280;45163;47.690;11.770;2023-02-28T12:40:22;93671.25;;;1.99;100.00
59367;BME280;45163;47.690;11.770;2023-02-28T12:43:00;93673.25;;;2.06;100.00
59367;BME280;45163;47.690;11.770;2023-02-28T12:48:06;93676.63;;;1.59;100.00
59367;BME280;45163;47.690;11.770;2023-02-28T12:50:33;93678.34;;;1.78;100.00
59367;BME280;45163;47.690;11.770;2023-02-28T12:58:22;93670.47;;;1.24;100.00
59367;BME280;45163;47.690;11.770;2023-02-28T13:09:59;93676.81;;;1.39;100.00
59367;BME280;45163;47.690;11.770;2023-02-28T13:12:26;93672.25;;;1.43;100.00
59367;BME280;45163;47.690;11.770;2023-02-28T13:20:59;93663.66;;;1.01;100.00
59367;BME280;45163;47.690;11.770;2023-02-28T13:23:58;93669.34;;;0.95;100.00
59367;BME280;45163;47.690;11.770;2023-02-28T13:34:28;93667.03;;;0.94;100.00
59367;BME280;45163;47.690;11.770;2023-02-28T13:39:48;93672.28;;;0.57;100.00
59367;BME280;45163;47.690;11.770;2023-02-28T13:48:00;93675.00;;;-0.35;100.00
59367;BME280;45163;47.690;11.770;2023-02-28T13:50:35;93682.31;;;0.10;100.00
59367;BME280;45163;47.690;11.770;2023-02-28T13:56:03;93681.44;;;-0.17;100.00
59367;BME280;45163;47.690;11.770;2023-02-28T13:58:51;93686.84;;;-0.79;100.00
59367;BME280;45163;47.690;11.770;2023-02-28T14:01:37;93685.13;;;-0.67;100.00
59367;BME280;45163;47.690;11.770;2023-02-28T14:06:54;93690.41;;;-0.52;100.00
59367;BME280;45163;47.690;11.770;2023-02-28T14:11:55;93686.97;;;-0.52;100.00
59367;BME280;45163;47.690;11.770;2023-02-28T14:17:22;93687.78;;;-0.71;100.00
59367;BME280;45163;47.690;11.770;2023-02-28T14:19:50;93691.16;;;-0.74;100.00
59367;BME280;45163;47.690;11.770;2023-02-28T14:28:18;93697.41;;;-0.47;100.00
59367;BME280;45163;47.690;11.770;2023-02-28T14:36:37;93690.69;;;-1.15;100.00
59367;BME280;45163;47.690;11.770;2023-02-28T14:39:22;93696.50;;;-0.93;100.00
59367;BME280;45163;47.690;11.770;2023-02-28T14:41:49;93699.03;;;-0.81;100.00
59367;BME280;45163;47.690;11.770;2023-02-28T14:44:19;93691.44;;;-0.79;100.00
59367;BME280;45163;47.690;11.770;2023-02-28T14:46:48;93701.34;;;-0.80;100.00
59367;BME280;45163;47.690;11.770;2023-02-28T14:49:28;93700.78;;;-0.89;100.00
59367;BME280;45163;47.690;11.770;2023-02-28T14:52:12;93702.84;;;-1.02;100.00
59367;BME280;45163;47.690;11.770;2023-02-28T14:54:41;93703.41;;;-0.92;100.00
59367;BME280;45163;47.690;11.770;2023-02-28T14:57:49;93703.44;;;-1.28;100.00
59367;BME280;45163;47.690;11.770;2023-02-28T15:02:43;93704.41;;;-1.36;100.00
59367;BME280;45163;47.690;11.770;2023-02-28T15:07:38;93715.91;;;-1.35;100.00
59367;BME280;45163;47.690;11.770;2023-02-28T15:12:39;93712.06;;;-1.54;100.00
59367;BME280;45163;47.690;11.770;2023-02-28T15:15:13;93709.19;;;-1.45;100.00
59367;BME280;45163;47.690;11.770;2023-02-28T15:17:40;93711.66;;;-1.36;100.00
59367;BME280;45163;47.690;11.770;2023-02-28T15:20:12;93709.75;;;-1.36;100.00
59367;BME280;45163;47.690;11.770;2023-02-28T15:22:39;93716.94;;;-1.40;100.00
59367;BME280;45163;47.690;11.770;2023-02-28T15:25:06;93721.69;;;-1.33;100.00
59367;BME280;45163;47.690;11.770;2023-02-28T15:27:39;93719.59;;;-1.24;100.00
59367;BME280;45163;47.690;11.770;2023-02-28T15:30:34;93724.88;;;-1.28;100.00
59367;BME280;45163;47.690;11.770;2023-02-28T15:33:18;93716.72;;;-1.15;100.00
59367;BME280;45163;47.690;11.770;2023-02-28T15:35:45;93716.47;;;-1.26;100.00
59367;BME280;45163;47.690;11.770;2023-02-28T15:38:17;93712.31;;;-1.23;100.00
59367;BME280;45163;47.690;11.770;2023-02-28T15:40:46;93716.88;;;-1.08;100.00
59367;BME280;45163;47.690;11.770;2023-02-28T15:43:33;93713.84;;;-1.07;100.00
59367;BME280;45163;47.690;11.770;2023-02-28T15:46:02;93715.31;;;-1.09;100.00
59367;BME280;45163;47.690;11.770;2023-02-28T15:48:34;93710.38;;;-1.07;100.00